createdAt,value
2018-11-03T00:03:12.292Z,73.10
2018-11-03T00:08:15.272Z,72.80
2018-11-03T00:13:18.277Z,72.80
2018-11-03T00:18:21.393Z,74.20
2018-11-03T00:23:24.385Z,74.70
2018-11-03T00:28:27.436Z,74.10
2018-11-03T00:33:30.461Z,74.20
2018-11-03T00:38:33.555Z,72.90
2018-11-03T00:43:36.498Z,73.80
2018-11-03T00:48:39.472Z,74.80
2018-11-03T00:53:42.402Z,74.80
2018-11-03T00:58:45.362Z,74.80
2018-11-03T01:03:48.366Z,74.50
2018-11-03T01:08:51.438Z,73.90
2018-11-03T01:13:54.397Z,73.60
2018-11-03T01:18:57.358Z,72.30
2018-11-03T01:24:00.349Z,73.40
2018-11-03T01:29:04.984Z,74.30
2018-11-03T01:34:08.004Z,73.70
2018-11-03T01:39:11.731Z,73.30
2018-11-03T01:44:14.691Z,74.40
2018-11-03T01:49:17.605Z,75.00
2018-11-03T01:54:20.591Z,75.20
2018-11-03T01:59:23.524Z,76.80
2018-11-03T02:04:26.488Z,77.50
2018-11-03T02:09:29.498Z,78.90
2018-11-03T02:14:32.439Z,78.70
2018-11-03T02:19:35.353Z,78.30
2018-11-03T02:24:38.282Z,79.00
2018-11-03T02:29:41.208Z,78.50
2018-11-03T02:34:44.110Z,78.90
2018-11-03T02:39:46.983Z,78.30
2018-11-03T02:44:49.900Z,77.90
2018-11-03T02:49:52.870Z,77.60
2018-11-03T02:54:55.957Z,80.00
2018-11-03T02:59:58.907Z,81.50
2018-11-03T03:05:02.307Z,82.60
2018-11-03T03:10:07.712Z,83.20
2018-11-03T03:15:11.715Z,83.60
2018-11-03T03:20:14.683Z,83.20
2018-11-03T03:25:17.681Z,85.20
2018-11-03T03:30:20.670Z,84.80
2018-11-03T03:35:23.612Z,85.30
2018-11-03T03:40:26.530Z,84.40
2018-11-03T03:45:29.456Z,85.00
2018-11-03T03:50:32.397Z,85.40
2018-11-03T03:55:35.374Z,84.90
2018-11-03T04:00:38.324Z,84.40
2018-11-03T04:05:41.341Z,84.40
2018-11-03T04:10:44.342Z,85.30
2018-11-03T04:15:47.197Z,85.00
2018-11-03T04:20:50.122Z,85.10
2018-11-03T04:25:53.082Z,85.80
2018-11-03T04:30:55.951Z,87.00
2018-11-03T04:35:58.911Z,86.20
2018-11-03T04:41:03.669Z,86.50
2018-11-03T04:46:06.699Z,86.60
2018-11-03T04:51:09.673Z,88.20
2018-11-03T04:56:12.608Z,87.80
2018-11-03T05:01:15.510Z,88.30
2018-11-03T05:06:18.412Z,89.00
2018-11-03T05:11:21.372Z,87.80
2018-11-03T05:16:24.304Z,87.90
2018-11-03T05:21:27.293Z,89.00
2018-11-03T05:26:30.196Z,89.70
2018-11-03T05:31:33.176Z,88.00
2018-11-03T05:36:36.157Z,88.20
2018-11-03T05:41:39.395Z,90.00
2018-11-03T05:46:42.475Z,92.70
2018-11-03T05:51:45.339Z,94.10
2018-11-03T05:56:48.260Z,94.70
2018-11-03T06:01:51.253Z,94.70
2018-11-03T06:06:54.166Z,94.10
2018-11-03T06:11:57.082Z,93.70
2018-11-03T06:16:59.997Z,94.30
2018-11-03T06:22:05.288Z,91.40
2018-11-03T06:27:08.247Z,92.80
2018-11-03T06:32:11.224Z,93.70
2018-11-03T06:37:14.187Z,94.00
2018-11-03T06:42:17.182Z,93.40
2018-11-03T06:47:20.192Z,91.90
2018-11-03T06:52:23.218Z,92.00
2018-11-03T06:57:26.065Z,91.80
2018-11-03T07:02:29.004Z,89.00
2018-11-03T07:07:32.041Z,86.40
2018-11-03T07:12:35.160Z,81.90
2018-11-03T07:17:37.925Z,78.20
2018-11-03T07:22:41.200Z,75.20
2018-11-03T07:27:44.120Z,72.30
2018-11-03T07:32:47.058Z,70.90
2018-11-03T07:37:49.976Z,69.00
2018-11-03T07:42:52.893Z,67.10
2018-11-03T07:47:55.931Z,70.50
2018-11-03T07:52:58.859Z,71.00
2018-11-03T07:58:02.191Z,70.60
2018-11-03T08:03:05.193Z,70.70
2018-11-03T08:08:08.151Z,71.20
2018-11-03T08:13:11.069Z,71.40
2018-11-03T08:18:13.979Z,71.10
2018-11-03T08:23:16.883Z,70.40
2018-11-03T08:28:19.824Z,70.80
2018-11-03T08:33:22.751Z,71.70
2018-11-03T08:38:25.679Z,70.50
2018-11-03T08:43:28.612Z,68.80
2018-11-03T08:48:31.615Z,67.80
2018-11-03T08:53:34.602Z,69.10
2018-11-03T08:58:37.605Z,68.20
2018-11-03T09:03:40.551Z,67.10
2018-11-03T09:08:43.431Z,66.90
2018-11-03T09:13:46.372Z,67.00
2018-11-03T09:18:49.298Z,67.60
2018-11-03T09:23:52.152Z,68.80
2018-11-03T09:28:55.082Z,69.10
2018-11-03T09:33:58.025Z,68.50
2018-11-03T09:39:03.665Z,67.40
2018-11-03T09:44:06.728Z,68.10
2018-11-03T09:49:09.674Z,68.30
2018-11-03T09:54:12.636Z,67.80
2018-11-03T09:59:15.613Z,66.20
2018-11-03T10:04:18.657Z,67.20
2018-11-03T10:09:21.536Z,65.40
2018-11-03T10:14:24.474Z,64.00
2018-11-03T10:19:27.410Z,63.20
2018-11-03T10:24:30.324Z,63.60
2018-11-03T10:29:33.291Z,64.00
2018-11-03T10:34:36.224Z,63.60
2018-11-03T10:39:39.105Z,63.30
2018-11-03T10:44:42.089Z,62.00
2018-11-03T10:49:45.009Z,61.90
2018-11-03T10:54:48.102Z,61.20
2018-11-03T10:59:51.866Z,61.70
2018-11-03T11:05:01.674Z,61.20
2018-11-03T11:10:10.776Z,60.70
2018-11-03T11:15:13.700Z,60.30
2018-11-03T11:20:16.693Z,61.40
2018-11-03T11:25:19.650Z,60.80
2018-11-03T11:30:22.560Z,61.60
2018-11-03T11:35:25.530Z,59.90
2018-11-03T11:40:28.639Z,60.80
2018-11-03T11:45:31.622Z,60.10
2018-11-03T11:50:34.825Z,59.60
2018-11-03T11:55:37.783Z,59.40
2018-11-03T12:00:40.835Z,58.80
2018-11-03T12:05:43.560Z,59.00
2018-11-03T12:10:46.545Z,58.10
2018-11-03T12:15:49.568Z,57.80
2018-11-03T12:20:52.564Z,59.40
2018-11-03T12:25:55.449Z,59.30
2018-11-03T12:30:58.408Z,57.90
2018-11-03T12:36:03.214Z,56.70
2018-11-03T12:41:06.205Z,56.40
2018-11-03T12:46:09.247Z,56.80
2018-11-03T12:51:12.299Z,56.70
2018-11-03T12:56:15.261Z,56.60
2018-11-03T13:01:18.292Z,55.80
2018-11-03T13:06:21.203Z,56.00
2018-11-03T13:11:24.177Z,56.30
2018-11-03T13:16:27.278Z,55.90
2018-11-03T13:21:30.206Z,56.20
2018-11-03T13:26:33.125Z,56.80
2018-11-03T13:31:36.138Z,55.80
2018-11-03T13:36:39.035Z,55.80
2018-11-03T13:41:41.971Z,56.50
2018-11-03T13:46:44.922Z,56.90
2018-11-03T13:51:47.951Z,57.50
2018-11-03T13:56:50.991Z,57.40
2018-11-03T14:01:54.056Z,58.10
2018-11-03T14:06:57.127Z,57.60
2018-11-03T14:12:00.162Z,59.10
2018-11-03T14:17:03.855Z,58.10
2018-11-03T14:22:06.814Z,58.90
2018-11-03T14:27:09.823Z,57.80
2018-11-03T14:32:12.753Z,58.20
2018-11-03T14:37:15.691Z,58.30
2018-11-03T14:42:18.774Z,58.70
2018-11-03T14:47:21.864Z,59.30
2018-11-03T14:52:24.843Z,59.50
2018-11-03T14:57:27.936Z,60.80
2018-11-03T15:02:31.043Z,61.00
2018-11-03T15:07:34.345Z,59.80
2018-11-03T15:12:37.329Z,60.10
2018-11-03T15:17:40.332Z,60.40
2018-11-03T15:22:44.037Z,61.70
2018-11-03T15:27:47.140Z,62.30
2018-11-03T15:32:50.153Z,62.60
2018-11-03T15:37:53.202Z,63.30
2018-11-03T15:42:56.203Z,64.00
2018-11-03T15:47:59.257Z,65.40
2018-11-03T15:53:04.863Z,66.50
2018-11-03T15:58:08.032Z,67.40
2018-11-03T16:03:11.014Z,68.30
2018-11-03T16:08:14.048Z,68.40
2018-11-03T16:13:17.056Z,68.40
2018-11-03T16:18:20.167Z,70.80
2018-11-03T16:23:23.144Z,71.90
2018-11-03T16:28:26.212Z,72.30
2018-11-03T16:33:29.204Z,73.50
2018-11-03T16:38:32.206Z,75.20
2018-11-03T16:43:35.053Z,76.30
2018-11-03T16:48:38.169Z,77.60
2018-11-03T16:53:41.103Z,77.60
2018-11-03T16:58:44.093Z,78.20
2018-11-03T17:03:47.082Z,79.50
2018-11-03T17:08:50.088Z,80.30
2018-11-03T17:13:52.978Z,80.00
2018-11-03T17:18:56.069Z,81.30
2018-11-03T17:23:58.909Z,82.80
2018-11-03T17:29:03.028Z,81.60
2018-11-03T17:34:06.075Z,82.30
2018-11-03T17:39:10.372Z,82.40
2018-11-03T17:44:13.365Z,82.00
2018-11-03T17:49:17.297Z,82.40
2018-11-03T17:54:20.245Z,82.70
2018-11-03T17:59:23.356Z,84.50
2018-11-03T18:04:26.768Z,85.50
2018-11-03T18:09:29.800Z,84.50
2018-11-03T18:14:32.859Z,84.50
2018-11-03T18:19:35.887Z,85.40
2018-11-03T18:24:38.901Z,86.40
2018-11-03T18:29:41.852Z,86.30
2018-11-03T18:34:45.209Z,85.40
2018-11-03T18:39:48.218Z,86.70
2018-11-03T18:44:51.094Z,86.20
2018-11-03T18:49:54.295Z,86.80
2018-11-03T18:54:57.377Z,85.40
2018-11-03T19:00:00.404Z,84.70
2018-11-03T19:05:04.757Z,84.50
2018-11-03T19:10:09.268Z,84.20
2018-11-03T19:15:12.187Z,84.60
2018-11-03T19:20:15.949Z,84.80
2018-11-03T19:25:18.870Z,84.30
2018-11-03T19:30:21.914Z,84.70
2018-11-03T19:35:24.856Z,85.10
2018-11-03T19:40:27.865Z,84.50
2018-11-03T19:45:31.300Z,84.60
2018-11-03T19:50:34.463Z,85.10
2018-11-03T19:55:37.892Z,84.80
2018-11-03T20:00:40.989Z,84.00
2018-11-03T20:05:43.888Z,83.50
2018-11-03T20:10:47.192Z,83.00
2018-11-03T20:15:50.563Z,82.30
2018-11-03T20:20:53.513Z,82.40
2018-11-03T20:25:56.657Z,82.60
2018-11-03T20:30:59.827Z,83.00
2018-11-03T20:36:04.453Z,82.40
2018-11-03T20:41:07.714Z,83.10
2018-11-03T20:46:10.615Z,83.20
2018-11-03T20:51:13.565Z,82.90
2018-11-03T20:56:16.615Z,83.30
2018-11-03T21:01:19.641Z,82.80
2018-11-03T21:06:22.658Z,82.20
2018-11-03T21:11:25.570Z,82.10
2018-11-03T21:16:28.785Z,81.50
2018-11-03T21:21:32.868Z,81.70
2018-11-03T21:26:36.130Z,81.10
2018-11-03T21:31:39.150Z,81.30
2018-11-03T21:36:42.019Z,82.10
2018-11-03T21:41:44.900Z,81.40
2018-11-03T21:46:47.962Z,81.70
2018-11-03T21:51:51.185Z,81.90
2018-11-03T21:56:54.068Z,82.20
2018-11-03T22:01:57.002Z,82.90
2018-11-03T22:06:59.977Z,82.00
2018-11-03T22:12:04.790Z,82.20
2018-11-03T22:17:07.668Z,82.30
2018-11-03T22:22:10.879Z,82.30
2018-11-03T22:27:13.941Z,82.00
2018-11-03T22:32:16.892Z,82.50
2018-11-03T22:37:19.837Z,83.00
2018-11-03T22:42:22.789Z,83.00
2018-11-03T22:47:26.436Z,82.50
2018-11-03T22:52:29.384Z,82.60
2018-11-03T22:57:32.324Z,82.70
2018-11-03T23:02:35.258Z,83.00
2018-11-03T23:07:38.383Z,82.00
2018-11-03T23:12:41.356Z,82.00
2018-11-03T23:17:44.260Z,82.20
2018-11-03T23:22:47.178Z,82.40
2018-11-03T23:27:50.104Z,82.90
2018-11-03T23:32:53.051Z,83.50
2018-11-03T23:37:56.130Z,83.60
2018-11-03T23:42:59.064Z,83.60
2018-11-03T23:48:04.679Z,83.90
2018-11-03T23:53:07.901Z,84.30
2018-11-03T23:58:11.057Z,83.70
